Terminal Aerodrome Forecast
Issued by NWS Melbourne, FL

Home | Current Version | Previous Version | Text Only | Print | Product List | Glossary On
Versions: 1 2 3 4 5 6 7 8 9 10 11 12 13
000
FTUS42 KMLB 162332
TAFVRB
TAF
KVRB 162332Z 1700/1724 02005KT P6SM SCT250
     FM170400 VRB02KT P6SM FEW020 BKN250
      TEMPO 1708/1712 4SM BR
     FM171500 13006KT P6SM FEW030
     FM171800 13009KT P6SM FEW040 BKN250=

USA.gov is the U.S. government's official web portal to all federal, state and local government web resources and services.